sensor_id;sensor_type;location;lat;lon;timestamp;temperature;humidity
51996;DHT22;38010;53.264;6.592;2023-03-01T00:01:30;11.30;99.90
51996;DHT22;38010;53.264;6.592;2023-03-01T00:03:56;11.30;99.90
51996;DHT22;38010;53.264;6.592;2023-03-01T00:06:22;11.30;99.90
51996;DHT22;38010;53.264;6.592;2023-03-01T00:08:49;11.30;99.90
51996;DHT22;38010;53.264;6.592;2023-03-01T00:11:18;11.20;99.90
51996;DHT22;38010;53.264;6.592;2023-03-01T00:13:47;11.20;99.90
51996;DHT22;38010;53.264;6.592;2023-03-01T00:16:16;11.30;99.90
51996;DHT22;38010;53.264;6.592;2023-03-01T00:18:42;11.30;99.90
51996;DHT22;38010;53.264;6.592;2023-03-01T00:21:08;11.30;99.90
51996;DHT22;38010;53.264;6.592;2023-03-01T00:23:34;11.30;99.90
51996;DHT22;38010;53.264;6.592;2023-03-01T00:26:00;11.20;99.90
51996;DHT22;38010;53.264;6.592;2023-03-01T00:28:26;11.20;99.90
51996;DHT22;38010;53.264;6.592;2023-03-01T00:30:52;11.20;99.90
51996;DHT22;38010;53.264;6.592;2023-03-01T00:33:18;11.20;99.90
51996;DHT22;38010;53.264;6.592;2023-03-01T00:35:44;11.20;99.90
51996;DHT22;38010;53.264;6.592;2023-03-01T00:38:10;11.20;99.90
51996;DHT22;38010;53.264;6.592;2023-03-01T00:40:36;11.20;99.90
51996;DHT22;38010;53.264;6.592;2023-03-01T00:43:02;11.20;99.90
51996;DHT22;38010;53.264;6.592;2023-03-01T00:45:29;11.20;99.90
51996;DHT22;38010;53.264;6.592;2023-03-01T00:47:56;11.20;99.90
51996;DHT22;38010;53.264;6.592;2023-03-01T00:50:23;11.20;99.90
51996;DHT22;38010;53.264;6.592;2023-03-01T00:52:53;11.20;99.90
51996;DHT22;38010;53.264;6.592;2023-03-01T00:55:19;11.20;99.90
51996;DHT22;38010;53.264;6.592;2023-03-01T00:57:45;11.20;99.90
51996;DHT22;38010;53.264;6.592;2023-03-01T01:00:11;11.20;99.90
51996;DHT22;38010;53.264;6.592;2023-03-01T01:02:39;11.20;99.90
51996;DHT22;38010;53.264;6.592;2023-03-01T01:05:06;11.20;99.90
51996;DHT22;38010;53.264;6.592;2023-03-01T01:07:32;11.20;99.90
51996;DHT22;38010;53.264;6.592;2023-03-01T01:09:58;11.20;99.90
51996;DHT22;38010;53.264;6.592;2023-03-01T01:12:24;11.20;99.90
51996;DHT22;38010;53.264;6.592;2023-03-01T01:14:49;11.10;99.90
51996;DHT22;38010;53.264;6.592;2023-03-01T01:17:15;11.10;99.90
51996;DHT22;38010;53.264;6.592;2023-03-01T01:19:41;11.10;99.90
51996;DHT22;38010;53.264;6.592;2023-03-01T01:22:07;11.10;99.90
51996;DHT22;38010;53.264;6.592;2023-03-01T01:24:32;11.10;99.90
51996;DHT22;38010;53.264;6.592;2023-03-01T01:26:58;11.10;99.90
51996;DHT22;38010;53.264;6.592;2023-03-01T01:29:24;11.10;99.90
51996;DHT22;38010;53.264;6.592;2023-03-01T01:31:49;11.10;99.90
51996;DHT22;38010;53.264;6.592;2023-03-01T01:34:18;11.10;99.90
51996;DHT22;38010;53.264;6.592;2023-03-01T01:36:48;11.10;99.90
51996;DHT22;38010;53.264;6.592;2023-03-01T01:39:14;11.10;99.90
51996;DHT22;38010;53.264;6.592;2023-03-01T01:41:41;11.10;99.90
51996;DHT22;38010;53.264;6.592;2023-03-01T01:44:21;11.10;99.90
51996;DHT22;38010;53.264;6.592;2023-03-01T01:49:39;11.10;99.90
51996;DHT22;38010;53.264;6.592;2023-03-01T01:52:29;11.10;99.90
51996;DHT22;38010;53.264;6.592;2023-03-01T01:55:00;11.00;99.90
51996;DHT22;38010;53.264;6.592;2023-03-01T01:57:43;11.10;99.90
51996;DHT22;38010;53.264;6.592;2023-03-01T02:00:14;11.00;99.90
51996;DHT22;38010;53.264;6.592;2023-03-01T02:02:41;11.10;99.90
51996;DHT22;38010;53.264;6.592;2023-03-01T02:50:02;11.00;99.90
51996;DHT22;38010;53.264;6.592;2023-03-01T02:52:56;10.90;99.90
51996;DHT22;38010;53.264;6.592;2023-03-01T02:55:23;10.90;99.90
51996;DHT22;38010;53.264;6.592;2023-03-01T02:57:49;11.00;99.90
51996;DHT22;38010;53.264;6.592;2023-03-01T03:00:23;10.90;99.90
51996;DHT22;38010;53.264;6.592;2023-03-01T03:02:52;11.00;99.90
51996;DHT22;38010;53.264;6.592;2023-03-01T03:05:21;11.00;99.90
51996;DHT22;38010;53.264;6.592;2023-03-01T03:07:48;10.90;99.90
51996;DHT22;38010;53.264;6.592;2023-03-01T03:10:20;10.90;99.90
51996;DHT22;38010;53.264;6.592;2023-03-01T03:13:00;10.90;99.90
51996;DHT22;38010;53.264;6.592;2023-03-01T03:15:27;10.90;99.90
51996;DHT22;38010;53.264;6.592;2023-03-01T03:17:54;10.90;99.90
51996;DHT22;38010;53.264;6.592;2023-03-01T03:20:23;10.90;99.90
51996;DHT22;38010;53.264;6.592;2023-03-01T03:22:53;10.90;99.90
51996;DHT22;38010;53.264;6.592;2023-03-01T03:25:20;10.90;99.90
51996;DHT22;38010;53.264;6.592;2023-03-01T03:27:48;10.90;99.90
51996;DHT22;38010;53.264;6.592;2023-03-01T03:30:18;10.90;99.90
51996;DHT22;38010;53.264;6.592;2023-03-01T03:32:45;10.90;99.90
51996;DHT22;38010;53.264;6.592;2023-03-01T03:35:31;10.90;99.90
51996;DHT22;38010;53.264;6.592;2023-03-01T03:37:59;10.90;99.90
51996;DHT22;38010;53.264;6.592;2023-03-01T03:43:00;10.90;99.90
51996;DHT22;38010;53.264;6.592;2023-03-01T03:45:26;10.90;99.90
51996;DHT22;38010;53.264;6.592;2023-03-01T03:47:51;10.80;99.90
51996;DHT22;38010;53.264;6.592;2023-03-01T03:50:18;10.90;99.90
51996;DHT22;38010;53.264;6.592;2023-03-01T03:52:44;10.90;99.90
51996;DHT22;38010;53.264;6.592;2023-03-01T03:55:11;10.90;99.90
51996;DHT22;38010;53.264;6.592;2023-03-01T03:57:38;10.90;99.90
51996;DHT22;38010;53.264;6.592;2023-03-01T04:00:05;10.90;99.90
51996;DHT22;38010;53.264;6.592;2023-03-01T04:02:39;10.80;99.90
51996;DHT22;38010;53.264;6.592;2023-03-01T04:05:05;10.80;99.90
51996;DHT22;38010;53.264;6.592;2023-03-01T04:07:31;10.80;99.90
51996;DHT22;38010;53.264;6.592;2023-03-01T04:09:56;10.90;99.90
51996;DHT22;38010;53.264;6.592;2023-03-01T04:12:22;10.80;99.90
51996;DHT22;38010;53.264;6.592;2023-03-01T04:14:48;10.80;99.90
51996;DHT22;38010;53.264;6.592;2023-03-01T04:17:14;10.80;99.90
51996;DHT22;38010;53.264;6.592;2023-03-01T04:19:40;10.80;99.90
51996;DHT22;38010;53.264;6.592;2023-03-01T04:22:05;10.80;99.90
51996;DHT22;38010;53.264;6.592;2023-03-01T04:24:37;10.80;99.90
51996;DHT22;38010;53.264;6.592;2023-03-01T04:27:03;10.80;99.90
51996;DHT22;38010;53.264;6.592;2023-03-01T04:29:29;10.80;99.90
51996;DHT22;38010;53.264;6.592;2023-03-01T04:31:55;10.80;99.90
51996;DHT22;38010;53.264;6.592;2023-03-01T04:34:20;10.80;99.90
51996;DHT22;38010;53.264;6.592;2023-03-01T04:36:46;10.70;99.90
51996;DHT22;38010;53.264;6.592;2023-03-01T04:39:12;10.80;99.90
51996;DHT22;38010;53.264;6.592;2023-03-01T04:41:38;10.80;99.90
51996;DHT22;38010;53.264;6.592;2023-03-01T04:44:08;10.80;99.90
51996;DHT22;38010;53.264;6.592;2023-03-01T04:46:35;10.80;99.90
51996;DHT22;38010;53.264;6.592;2023-03-01T04:49:01;10.70;99.90
51996;DHT22;38010;53.264;6.592;2023-03-01T04:51:27;10.70;99.90
51996;DHT22;38010;53.264;6.592;2023-03-01T04:53:52;10.70;99.90
51996;DHT22;38010;53.264;6.592;2023-03-01T04:56:18;10.70;99.90
51996;DHT22;38010;53.264;6.592;2023-03-01T04:58:45;10.70;99.90
51996;DHT22;38010;53.264;6.592;2023-03-01T05:01:12;10.70;99.90
51996;DHT22;38010;53.264;6.592;2023-03-01T05:03:47;10.70;99.90
51996;DHT22;38010;53.264;6.592;2023-03-01T05:06:14;10.70;99.90
51996;DHT22;38010;53.264;6.592;2023-03-01T05:08:40;10.70;99.90
51996;DHT22;38010;53.264;6.592;2023-03-01T05:11:06;10.70;99.90
51996;DHT22;38010;53.264;6.592;2023-03-01T05:13:35;10.70;99.90
51996;DHT22;38010;53.264;6.592;2023-03-01T05:16:02;10.70;99.90
51996;DHT22;38010;53.264;6.592;2023-03-01T05:18:31;10.70;99.90
51996;DHT22;38010;53.264;6.592;2023-03-01T05:21:09;10.70;99.90
51996;DHT22;38010;53.264;6.592;2023-03-01T05:23:35;10.70;99.90
51996;DHT22;38010;53.264;6.592;2023-03-01T05:26:02;10.70;99.90
51996;DHT22;38010;53.264;6.592;2023-03-01T05:28:30;10.70;99.90
51996;DHT22;38010;53.264;6.592;2023-03-01T05:30:56;10.70;99.90
51996;DHT22;38010;53.264;6.592;2023-03-01T05:33:22;10.60;99.90
51996;DHT22;38010;53.264;6.592;2023-03-01T05:35:48;10.70;99.90
51996;DHT22;38010;53.264;6.592;2023-03-01T05:38:15;10.70;99.90
51996;DHT22;38010;53.264;6.592;2023-03-01T05:40:45;10.60;99.90
51996;DHT22;38010;53.264;6.592;2023-03-01T05:43:13;10.70;99.90
51996;DHT22;38010;53.264;6.592;2023-03-01T05:45:39;10.70;99.90
51996;DHT22;38010;53.264;6.592;2023-03-01T05:48:06;10.70;99.90
51996;DHT22;38010;53.264;6.592;2023-03-01T05:50:35;10.60;99.90
51996;DHT22;38010;53.264;6.592;2023-03-01T05:53:03;10.60;99.90
51996;DHT22;38010;53.264;6.592;2023-03-01T05:55:32;10.60;99.90
51996;DHT22;38010;53.264;6.592;2023-03-01T05:58:04;10.60;99.90
51996;DHT22;38010;53.264;6.592;2023-03-01T06:00:31;10.60;99.90
51996;DHT22;38010;53.264;6.592;2023-03-01T06:02:58;10.60;99.90
51996;DHT22;38010;53.264;6.592;2023-03-01T06:05:24;10.60;99.90
51996;DHT22;38010;53.264;6.592;2023-03-01T06:07:51;10.60;99.90
51996;DHT22;38010;53.264;6.592;2023-03-01T06:10:18;10.60;99.90
51996;DHT22;38010;53.264;6.592;2023-03-01T06:12:44;10.60;99.90
51996;DHT22;38010;53.264;6.592;2023-03-01T06:15:12;10.60;99.90
51996;DHT22;38010;53.264;6.592;2023-03-01T06:17:39;10.60;99.90
51996;DHT22;38010;53.264;6.592;2023-03-01T06:20:18;10.60;99.90
51996;DHT22;38010;53.264;6.592;2023-03-01T06:22:45;10.60;99.90
51996;DHT22;38010;53.264;6.592;2023-03-01T06:25:13;10.60;99.90
51996;DHT22;38010;53.264;6.592;2023-03-01T06:27:39;10.60;99.90
51996;DHT22;38010;53.264;6.592;2023-03-01T06:30:05;10.60;99.90
51996;DHT22;38010;53.264;6.592;2023-03-01T06:32:32;10.60;99.90
51996;DHT22;38010;53.264;6.592;2023-03-01T06:34:58;10.60;99.90
51996;DHT22;38010;53.264;6.592;2023-03-01T06:37:27;10.60;99.90
51996;DHT22;38010;53.264;6.592;2023-03-01T06:39:53;10.50;99.90
51996;DHT22;38010;53.264;6.592;2023-03-01T06:42:18;10.50;99.90
51996;DHT22;38010;53.264;6.592;2023-03-01T06:44:44;10.50;99.90
51996;DHT22;38010;53.264;6.592;2023-03-01T06:47:11;10.50;99.90
51996;DHT22;38010;53.264;6.592;2023-03-01T06:49:36;10.50;99.90
51996;DHT22;38010;53.264;6.592;2023-03-01T06:52:02;10.50;99.90
51996;DHT22;38010;53.264;6.592;2023-03-01T06:54:28;10.50;99.90
51996;DHT22;38010;53.264;6.592;2023-03-01T06:56:54;10.50;99.90
51996;DHT22;38010;53.264;6.592;2023-03-01T06:59:20;10.50;99.90
51996;DHT22;38010;53.264;6.592;2023-03-01T07:01:45;10.50;99.90
51996;DHT22;38010;53.264;6.592;2023-03-01T07:04:13;10.50;99.90
51996;DHT22;38010;53.264;6.592;2023-03-01T07:06:38;10.50;99.90
51996;DHT22;38010;53.264;6.592;2023-03-01T07:09:04;10.50;99.90
51996;DHT22;38010;53.264;6.592;2023-03-01T07:11:30;10.60;99.90
51996;DHT22;38010;53.264;6.592;2023-03-01T07:13:55;10.50;99.90
51996;DHT22;38010;53.264;6.592;2023-03-01T07:16:22;10.50;99.90
51996;DHT22;38010;53.264;6.592;2023-03-01T07:18:47;10.50;99.90
51996;DHT22;38010;53.264;6.592;2023-03-01T07:21:14;10.50;99.90
51996;DHT22;38010;53.264;6.592;2023-03-01T07:23:40;10.50;99.90
51996;DHT22;38010;53.264;6.592;2023-03-01T07:26:06;10.50;99.90
51996;DHT22;38010;53.264;6.592;2023-03-01T07:28:32;10.50;99.90
51996;DHT22;38010;53.264;6.592;2023-03-01T07:31:07;10.50;99.90
51996;DHT22;38010;53.264;6.592;2023-03-01T07:33:33;10.50;99.90
51996;DHT22;38010;53.264;6.592;2023-03-01T07:36:00;10.50;99.90
51996;DHT22;38010;53.264;6.592;2023-03-01T07:38:26;10.50;99.90
51996;DHT22;38010;53.264;6.592;2023-03-01T07:40:53;10.50;99.90
51996;DHT22;38010;53.264;6.592;2023-03-01T07:43:18;10.50;99.90
51996;DHT22;38010;53.264;6.592;2023-03-01T07:45:45;10.50;99.90
51996;DHT22;38010;53.264;6.592;2023-03-01T07:48:11;10.50;99.90
51996;DHT22;38010;53.264;6.592;2023-03-01T07:50:37;10.50;99.90
51996;DHT22;38010;53.264;6.592;2023-03-01T07:53:03;10.50;99.90
51996;DHT22;38010;53.264;6.592;2023-03-01T07:55:29;10.50;99.90
51996;DHT22;38010;53.264;6.592;2023-03-01T07:57:54;10.50;99.90
51996;DHT22;38010;53.264;6.592;2023-03-01T08:00:20;10.50;99.90
51996;DHT22;38010;53.264;6.592;2023-03-01T08:02:46;10.50;99.90
51996;DHT22;38010;53.264;6.592;2023-03-01T08:05:11;10.50;99.90
51996;DHT22;38010;53.264;6.592;2023-03-01T08:07:37;10.50;99.90
51996;DHT22;38010;53.264;6.592;2023-03-01T08:10:03;10.50;99.90
51996;DHT22;38010;53.264;6.592;2023-03-01T08:12:29;10.50;99.90
51996;DHT22;38010;53.264;6.592;2023-03-01T08:14:55;10.50;99.90
51996;DHT22;38010;53.264;6.592;2023-03-01T08:17:22;10.50;99.90
51996;DHT22;38010;53.264;6.592;2023-03-01T08:19:48;10.50;99.90
51996;DHT22;38010;53.264;6.592;2023-03-01T08:22:14;10.50;99.90
51996;DHT22;38010;53.264;6.592;2023-03-01T08:24:39;10.50;99.90
51996;DHT22;38010;53.264;6.592;2023-03-01T08:27:05;10.50;99.90
51996;DHT22;38010;53.264;6.592;2023-03-01T08:29:32;10.50;99.90
51996;DHT22;38010;53.264;6.592;2023-03-01T08:31:58;10.50;99.90
51996;DHT22;38010;53.264;6.592;2023-03-01T08:34:24;10.50;99.90
51996;DHT22;38010;53.264;6.592;2023-03-01T08:36:49;10.50;99.90
51996;DHT22;38010;53.264;6.592;2023-03-01T08:39:18;10.50;99.90
51996;DHT22;38010;53.264;6.592;2023-03-01T08:41:46;10.50;99.90
51996;DHT22;38010;53.264;6.592;2023-03-01T08:44:13;10.50;99.90
51996;DHT22;38010;53.264;6.592;2023-03-01T08:46:40;10.50;99.90
51996;DHT22;38010;53.264;6.592;2023-03-01T08:49:13;10.50;99.90
51996;DHT22;38010;53.264;6.592;2023-03-01T08:51:39;10.50;99.90
51996;DHT22;38010;53.264;6.592;2023-03-01T08:54:12;10.50;99.90
51996;DHT22;38010;53.264;6.592;2023-03-01T08:56:40;10.50;99.90
51996;DHT22;38010;53.264;6.592;2023-03-01T08:59:06;10.50;99.90
51996;DHT22;38010;53.264;6.592;2023-03-01T09:01:32;10.50;99.90
51996;DHT22;38010;53.264;6.592;2023-03-01T09:03:58;10.50;99.90
51996;DHT22;38010;53.264;6.592;2023-03-01T09:06:23;10.50;99.90
51996;DHT22;38010;53.264;6.592;2023-03-01T09:08:50;10.50;99.90
51996;DHT22;38010;53.264;6.592;2023-03-01T09:11:20;10.50;99.90
51996;DHT22;38010;53.264;6.592;2023-03-01T09:13:47;10.50;99.90
51996;DHT22;38010;53.264;6.592;2023-03-01T09:16:15;10.50;99.90
51996;DHT22;38010;53.264;6.592;2023-03-01T09:18:41;10.50;99.90
51996;DHT22;38010;53.264;6.592;2023-03-01T09:21:12;10.60;99.90
51996;DHT22;38010;53.264;6.592;2023-03-01T09:23:40;10.50;99.90
51996;DHT22;38010;53.264;6.592;2023-03-01T09:26:11;10.60;99.90
51996;DHT22;38010;53.264;6.592;2023-03-01T09:28:37;10.60;99.90
51996;DHT22;38010;53.264;6.592;2023-03-01T09:31:04;10.60;99.90
51996;DHT22;38010;53.264;6.592;2023-03-01T09:33:31;10.60;99.90
51996;DHT22;38010;53.264;6.592;2023-03-01T09:35:58;10.60;99.90
51996;DHT22;38010;53.264;6.592;2023-03-01T09:38:25;10.60;99.90
51996;DHT22;38010;53.264;6.592;2023-03-01T09:40:51;10.60;99.90
51996;DHT22;38010;53.264;6.592;2023-03-01T09:43:45;10.60;99.90
51996;DHT22;38010;53.264;6.592;2023-03-01T09:46:13;10.60;99.90
51996;DHT22;38010;53.264;6.592;2023-03-01T09:48:55;10.60;99.90
51996;DHT22;38010;53.264;6.592;2023-03-01T09:51:34;10.60;99.90
51996;DHT22;38010;53.264;6.592;2023-03-01T09:54:04;10.60;99.90
51996;DHT22;38010;53.264;6.592;2023-03-01T09:59:39;10.60;99.90
51996;DHT22;38010;53.264;6.592;2023-03-01T10:05:40;10.60;99.90
51996;DHT22;38010;53.264;6.592;2023-03-01T10:11:22;10.60;99.90
51996;DHT22;38010;53.264;6.592;2023-03-01T10:14:01;10.60;99.90
51996;DHT22;38010;53.264;6.592;2023-03-01T10:16:50;10.50;99.90
51996;DHT22;38010;53.264;6.592;2023-03-01T10:22:18;10.60;99.90
51996;DHT22;38010;53.264;6.592;2023-03-01T10:24:47;10.60;99.90
51996;DHT22;38010;53.264;6.592;2023-03-01T10:30:05;10.60;99.90
51996;DHT22;38010;53.264;6.592;2023-03-01T10:32:36;10.60;99.90
51996;DHT22;38010;53.264;6.592;2023-03-01T10:35:25;10.60;99.90
51996;DHT22;38010;53.264;6.592;2023-03-01T10:38:03;10.60;99.90
51996;DHT22;38010;53.264;6.592;2023-03-01T10:40:29;10.60;99.90
51996;DHT22;38010;53.264;6.592;2023-03-01T10:42:58;10.60;99.90
51996;DHT22;38010;53.264;6.592;2023-03-01T10:45:36;10.60;99.90
51996;DHT22;38010;53.264;6.592;2023-03-01T10:50:34;10.60;99.90
51996;DHT22;38010;53.264;6.592;2023-03-01T10:53:04;10.60;99.90
51996;DHT22;38010;53.264;6.592;2023-03-01T10:55:38;10.60;99.90
51996;DHT22;38010;53.264;6.592;2023-03-01T10:58:08;10.60;99.90
51996;DHT22;38010;53.264;6.592;2023-03-01T11:00:52;10.60;99.90
51996;DHT22;38010;53.264;6.592;2023-03-01T11:03:32;10.60;99.90
51996;DHT22;38010;53.264;6.592;2023-03-01T11:08:49;10.70;99.90
51996;DHT22;38010;53.264;6.592;2023-03-01T11:11:18;10.60;99.90
51996;DHT22;38010;53.264;6.592;2023-03-01T11:16:36;10.70;99.90
51996;DHT22;38010;53.264;6.592;2023-03-01T11:24:46;10.70;99.90
51996;DHT22;38010;53.264;6.592;2023-03-01T11:27:19;10.70;99.90
51996;DHT22;38010;53.264;6.592;2023-03-01T11:35:29;10.70;99.90
51996;DHT22;38010;53.264;6.592;2023-03-01T11:40:44;10.70;99.90
51996;DHT22;38010;53.264;6.592;2023-03-01T11:43:16;10.70;99.90
51996;DHT22;38010;53.264;6.592;2023-03-01T11:45:54;10.70;99.90
51996;DHT22;38010;53.264;6.592;2023-03-01T11:51:41;10.70;99.90
51996;DHT22;38010;53.264;6.592;2023-03-01T11:54:05;10.70;99.90
51996;DHT22;38010;53.264;6.592;2023-03-01T11:56:39;10.70;99.90
51996;DHT22;38010;53.264;6.592;2023-03-01T12:13:03;10.80;99.90
51996;DHT22;38010;53.264;6.592;2023-03-01T12:21:24;10.80;99.90
51996;DHT22;38010;53.264;6.592;2023-03-01T12:24:10;10.80;99.90
51996;DHT22;38010;53.264;6.592;2023-03-01T12:29:46;10.90;99.90
51996;DHT22;38010;53.264;6.592;2023-03-01T12:32:29;10.90;99.90
51996;DHT22;38010;53.264;6.592;2023-03-01T12:38:31;10.90;99.90
51996;DHT22;38010;53.264;6.592;2023-03-01T12:46:19;11.00;99.90
51996;DHT22;38010;53.264;6.592;2023-03-01T12:49:08;11.00;99.90
51996;DHT22;38010;53.264;6.592;2023-03-01T12:51:36;11.10;99.90
51996;DHT22;38010;53.264;6.592;2023-03-01T12:54:19;11.10;99.90
51996;DHT22;38010;53.264;6.592;2023-03-01T12:56:48;11.10;99.90
51996;DHT22;38010;53.264;6.592;2023-03-01T13:07:48;11.20;99.90
51996;DHT22;38010;53.264;6.592;2023-03-01T13:10:34;11.30;99.90
51996;DHT22;38010;53.264;6.592;2023-03-01T13:15:35;11.30;99.90
51996;DHT22;38010;53.264;6.592;2023-03-01T13:20:49;11.40;99.90
51996;DHT22;38010;53.264;6.592;2023-03-01T13:26:12;11.50;99.90
51996;DHT22;38010;53.264;6.592;2023-03-01T13:33:45;11.60;99.90
51996;DHT22;38010;53.264;6.592;2023-03-01T13:46:58;11.80;99.90
51996;DHT22;38010;53.264;6.592;2023-03-01T13:49:28;11.80;99.90
51996;DHT22;38010;53.264;6.592;2023-03-01T13:51:55;11.90;99.90
51996;DHT22;38010;53.264;6.592;2023-03-01T13:54:29;11.90;99.90
51996;DHT22;38010;53.264;6.592;2023-03-01T13:56:55;12.00;99.90
51996;DHT22;38010;53.264;6.592;2023-03-01T13:59:22;12.00;99.90
51996;DHT22;38010;53.264;6.592;2023-03-01T14:01:56;12.00;99.90
51996;DHT22;38010;53.264;6.592;2023-03-01T14:04:25;12.00;99.90
51996;DHT22;38010;53.264;6.592;2023-03-01T14:07:11;12.10;99.90
51996;DHT22;38010;53.264;6.592;2023-03-01T14:09:41;12.10;99.90
51996;DHT22;38010;53.264;6.592;2023-03-01T14:20:44;12.20;99.90
51996;DHT22;38010;53.264;6.592;2023-03-01T14:23:21;12.30;99.90
51996;DHT22;38010;53.264;6.592;2023-03-01T14:25:56;12.30;99.90
51996;DHT22;38010;53.264;6.592;2023-03-01T14:28:28;12.30;99.90
51996;DHT22;38010;53.264;6.592;2023-03-01T14:30:56;12.30;99.90
51996;DHT22;38010;53.264;6.592;2023-03-01T14:35:55;12.40;99.90
51996;DHT22;38010;53.264;6.592;2023-03-01T14:38:34;12.50;99.90
51996;DHT22;38010;53.264;6.592;2023-03-01T14:41:09;12.40;99.90
51996;DHT22;38010;53.264;6.592;2023-03-01T14:43:37;12.50;99.90
51996;DHT22;38010;53.264;6.592;2023-03-01T14:46:04;12.60;99.90
51996;DHT22;38010;53.264;6.592;2023-03-01T14:48:31;12.50;99.90
51996;DHT22;38010;53.264;6.592;2023-03-01T14:50:57;12.60;99.90
51996;DHT22;38010;53.264;6.592;2023-03-01T14:53:27;12.60;99.90
51996;DHT22;38010;53.264;6.592;2023-03-01T14:55:56;12.60;99.90
51996;DHT22;38010;53.264;6.592;2023-03-01T14:58:24;12.60;99.90
51996;DHT22;38010;53.264;6.592;2023-03-01T15:00:53;12.60;99.90
51996;DHT22;38010;53.264;6.592;2023-03-01T15:05:50;12.70;99.90
51996;DHT22;38010;53.264;6.592;2023-03-01T15:08:20;12.70;99.90
51996;DHT22;38010;53.264;6.592;2023-03-01T15:11:05;12.70;99.90
51996;DHT22;38010;53.264;6.592;2023-03-01T15:13:35;12.70;99.90
51996;DHT22;38010;53.264;6.592;2023-03-01T15:18:42;12.80;99.90
51996;DHT22;38010;53.264;6.592;2023-03-01T15:21:18;12.80;99.90
51996;DHT22;38010;53.264;6.592;2023-03-01T15:23:54;12.80;99.90
51996;DHT22;38010;53.264;6.592;2023-03-01T15:26:33;12.90;99.90
51996;DHT22;38010;53.264;6.592;2023-03-01T15:29:00;12.90;99.90
51996;DHT22;38010;53.264;6.592;2023-03-01T15:31:29;12.90;99.90
51996;DHT22;38010;53.264;6.592;2023-03-01T15:34:23;12.90;99.90
51996;DHT22;38010;53.264;6.592;2023-03-01T15:36:51;12.90;99.90
51996;DHT22;38010;53.264;6.592;2023-03-01T15:42:08;12.80;99.90
51996;DHT22;38010;53.264;6.592;2023-03-01T15:44:37;12.90;99.90
51996;DHT22;38010;53.264;6.592;2023-03-01T15:50:05;12.90;99.90
51996;DHT22;38010;53.264;6.592;2023-03-01T15:52:39;12.90;99.90
51996;DHT22;38010;53.264;6.592;2023-03-01T15:55:17;12.80;99.90
51996;DHT22;38010;53.264;6.592;2023-03-01T15:57:44;12.80;99.90
51996;DHT22;38010;53.264;6.592;2023-03-01T16:00:11;12.80;99.90
51996;DHT22;38010;53.264;6.592;2023-03-01T16:02:39;12.90;99.90
51996;DHT22;38010;53.264;6.592;2023-03-01T16:05:09;12.80;99.90
51996;DHT22;38010;53.264;6.592;2023-03-01T16:07:40;12.80;99.90
51996;DHT22;38010;53.264;6.592;2023-03-01T16:10:06;12.80;99.90
51996;DHT22;38010;53.264;6.592;2023-03-01T16:12:32;12.80;99.90
51996;DHT22;38010;53.264;6.592;2023-03-01T16:14:57;12.80;99.90
51996;DHT22;38010;53.264;6.592;2023-03-01T16:17:23;12.80;99.90
51996;DHT22;38010;53.264;6.592;2023-03-01T16:19:49;12.70;99.90
51996;DHT22;38010;53.264;6.592;2023-03-01T16:22:15;12.70;99.90
51996;DHT22;38010;53.264;6.592;2023-03-01T16:24:40;12.70;99.90
51996;DHT22;38010;53.264;6.592;2023-03-01T16:27:06;12.60;99.90
51996;DHT22;38010;53.264;6.592;2023-03-01T16:29:32;12.60;99.90
51996;DHT22;38010;53.264;6.592;2023-03-01T16:32:02;12.60;99.90
51996;DHT22;38010;53.264;6.592;2023-03-01T16:34:28;12.50;99.90
51996;DHT22;38010;53.264;6.592;2023-03-01T16:36:53;12.50;99.90
51996;DHT22;38010;53.264;6.592;2023-03-01T16:39:19;12.50;99.90
51996;DHT22;38010;53.264;6.592;2023-03-01T16:41:45;12.40;99.90
51996;DHT22;38010;53.264;6.592;2023-03-01T16:44:10;12.40;99.90
51996;DHT22;38010;53.264;6.592;2023-03-01T16:46:36;12.30;99.90
51996;DHT22;38010;53.264;6.592;2023-03-01T16:49:02;12.30;99.90
51996;DHT22;38010;53.264;6.592;2023-03-01T16:51:28;12.20;99.90
51996;DHT22;38010;53.264;6.592;2023-03-01T16:53:55;12.20;99.90
51996;DHT22;38010;53.264;6.592;2023-03-01T16:56:21;12.20;99.90
51996;DHT22;38010;53.264;6.592;2023-03-01T16:58:47;12.10;99.90
51996;DHT22;38010;53.264;6.592;2023-03-01T17:01:15;12.10;99.90
51996;DHT22;38010;53.264;6.592;2023-03-01T17:03:42;12.10;99.90
51996;DHT22;38010;53.264;6.592;2023-03-01T17:06:10;12.00;99.90
51996;DHT22;38010;53.264;6.592;2023-03-01T17:08:37;12.00;99.90
51996;DHT22;38010;53.264;6.592;2023-03-01T17:11:08;12.00;99.90
51996;DHT22;38010;53.264;6.592;2023-03-01T17:13:35;12.00;99.90
51996;DHT22;38010;53.264;6.592;2023-03-01T17:16:03;11.90;99.90
51996;DHT22;38010;53.264;6.592;2023-03-01T17:18:30;11.90;99.90
51996;DHT22;38010;53.264;6.592;2023-03-01T17:20:55;11.90;99.90
51996;DHT22;38010;53.264;6.592;2023-03-01T17:23:21;11.80;99.90
51996;DHT22;38010;53.264;6.592;2023-03-01T17:25:47;11.80;99.90
51996;DHT22;38010;53.264;6.592;2023-03-01T17:28:13;11.80;99.90
51996;DHT22;38010;53.264;6.592;2023-03-01T17:30:43;11.80;99.90
51996;DHT22;38010;53.264;6.592;2023-03-01T17:33:10;11.80;99.90
51996;DHT22;38010;53.264;6.592;2023-03-01T17:35:36;11.80;99.90
51996;DHT22;38010;53.264;6.592;2023-03-01T17:38:06;11.70;99.90
51996;DHT22;38010;53.264;6.592;2023-03-01T17:40:32;11.70;99.90
51996;DHT22;38010;53.264;6.592;2023-03-01T17:43:00;11.70;99.90
51996;DHT22;38010;53.264;6.592;2023-03-01T17:45:26;11.70;99.90
51996;DHT22;38010;53.264;6.592;2023-03-01T17:47:52;11.60;99.90
51996;DHT22;38010;53.264;6.592;2023-03-01T17:50:17;11.60;99.90
51996;DHT22;38010;53.264;6.592;2023-03-01T17:52:43;11.60;99.90
51996;DHT22;38010;53.264;6.592;2023-03-01T17:55:10;11.60;99.90
51996;DHT22;38010;53.264;6.592;2023-03-01T17:57:40;11.60;99.90
51996;DHT22;38010;53.264;6.592;2023-03-01T18:00:10;11.60;99.90
51996;DHT22;38010;53.264;6.592;2023-03-01T18:02:36;11.60;99.90
51996;DHT22;38010;53.264;6.592;2023-03-01T18:05:02;11.60;99.90
51996;DHT22;38010;53.264;6.592;2023-03-01T18:07:29;11.50;99.90
51996;DHT22;38010;53.264;6.592;2023-03-01T18:09:55;11.50;99.90
51996;DHT22;38010;53.264;6.592;2023-03-01T18:12:20;11.50;99.90
51996;DHT22;38010;53.264;6.592;2023-03-01T18:14:48;11.50;99.90
51996;DHT22;38010;53.264;6.592;2023-03-01T18:17:21;11.50;99.90
51996;DHT22;38010;53.264;6.592;2023-03-01T18:19:47;11.50;99.90
51996;DHT22;38010;53.264;6.592;2023-03-01T18:22:13;11.50;99.90
51996;DHT22;38010;53.264;6.592;2023-03-01T18:24:40;11.50;99.90
51996;DHT22;38010;53.264;6.592;2023-03-01T18:27:06;11.50;99.90
51996;DHT22;38010;53.264;6.592;2023-03-01T18:29:32;11.50;99.90
51996;DHT22;38010;53.264;6.592;2023-03-01T18:31:58;11.50;99.90
51996;DHT22;38010;53.264;6.592;2023-03-01T18:34:24;11.40;99.90
51996;DHT22;38010;53.264;6.592;2023-03-01T18:36:50;11.50;99.90